Time;durP1;ratioP1;P1;durP2;ratioP2;P2;SDS_P1;SDS_P2;PMS_P1;PMS_P2;Temp;Humidity;BMP_temperature;BMP_pressure;BME280_temperature;BME280_humidity;BME280_pressure;Samples;Min_cycle;Max_cycle;Signal;HPM_P1;HPM_P2
2021/09/03 00:00:49;;;;;;;7.25;3.28;;;;;;;;;;143735;575;46012;-88
2021/09/03 00:03:16;;;;;;;4.32;3.15;;;;;;;;;;143734;576;46022;-90
2021/09/03 00:05:44;;;;;;;4.80;3.58;;;;;;;;;;143735;570;46012;-87
2021/09/03 00:08:12;;;;;;;10.00;3.45;;;;;;;;;;143737;579;46020;-88
2021/09/03 00:10:42;;;;;;;5.62;4.05;;;;;;;;;;143736;572;46012;-89
2021/09/03 00:13:09;;;;;;;3.87;3.40;;;;;;;;;;143734;581;46023;-87
2021/09/03 00:15:35;;;;;;;6.90;3.60;;;;;;;;;;143733;583;46020;-88
2021/09/03 00:18:02;;;;;;;5.15;3.33;;;;;;;;;;143736;582;46020;-89
2021/09/03 00:20:30;;;;;;;8.57;3.85;;;;;;;;;;143737;614;46012;-89
2021/09/03 00:22:59;;;;;;;5.72;3.62;;;;;;;;;;143733;622;47020;-89
2021/09/03 00:25:26;;;;;;;8.20;3.40;;;;;;;;;;143733;588;46012;-91
2021/09/03 00:28:05;;;;;;;7.00;3.45;;;;;;;;;;143736;639;46014;-88
2021/09/03 00:30:32;;;;;;;4.78;3.30;;;;;;;;;;143735;600;46020;-88
2021/09/03 00:33:00;;;;;;;5.50;3.20;;;;;;;;;;143735;567;47022;-88
2021/09/03 00:35:28;;;;;;;4.28;3.70;;;;;;;;;;143734;595;46012;-86
2021/09/03 00:37:55;;;;;;;5.45;3.10;;;;;;;;;;143736;625;46020;-87
2021/09/03 00:40:22;;;;;;;5.45;3.10;;;;;;;;;;143739;646;46012;-90
2021/09/03 00:42:49;;;;;;;4.25;3.15;;;;;;;;;;143735;569;46021;-89
2021/09/03 00:45:19;;;;;;;5.12;2.80;;;;;;;;;;143735;582;46012;-88
2021/09/03 00:47:46;;;;;;;5.95;3.00;;;;;;;;;;143736;622;46014;-89
2021/09/03 00:50:14;;;;;;;8.65;3.62;;;;;;;;;;143736;610;46018;-88
2021/09/03 00:52:47;;;;;;;5.70;3.78;;;;;;;;;;143735;576;46042;-88
2021/09/03 00:55:17;;;;;;;3.97;2.83;;;;;;;;;;143735;631;46012;-89
2021/09/03 00:57:46;;;;;;;6.35;3.30;;;;;;;;;;143737;570;46021;-89
2021/09/03 01:00:13;;;;;;;6.10;3.60;;;;;;;;;;143738;574;46012;-90
2021/09/03 01:02:43;;;;;;;7.37;3.08;;;;;;;;;;143733;665;47022;-89
2021/09/03 01:05:10;;;;;;;6.30;4.15;;;;;;;;;;143733;567;46012;-89
2021/09/03 01:07:39;;;;;;;9.32;4.07;;;;;;;;;;143738;573;46020;-88
2021/09/03 01:10:07;;;;;;;8.18;3.50;;;;;;;;;;143735;668;46013;-89
2021/09/03 01:12:45;;;;;;;5.80;3.20;;;;;;;;;;143735;575;46023;-90
2021/09/03 01:15:12;;;;;;;7.75;3.87;;;;;;;;;;143734;611;46012;-88
2021/09/03 01:17:45;;;;;;;6.05;3.62;;;;;;;;;;143736;651;46020;-89
2021/09/03 01:20:17;;;;;;;5.50;3.30;;;;;;;;;;143735;579;46024;-88
2021/09/03 01:22:45;;;;;;;3.87;3.25;;;;;;;;;;143736;622;46020;-88
2021/09/03 01:25:15;;;;;;;8.15;2.92;;;;;;;;;;143735;637;46012;-89
2021/09/03 01:27:46;;;;;;;8.02;3.42;;;;;;;;;;143736;599;46021;-90
2021/09/03 01:30:16;;;;;;;7.07;3.50;;;;;;;;;;143739;572;46020;-89
2021/09/03 01:32:43;;;;;;;5.22;3.00;;;;;;;;;;143738;566;46022;-91
2021/09/03 01:35:14;;;;;;;8.75;3.58;;;;;;;;;;143734;598;46012;-89
2021/09/03 01:37:40;;;;;;;6.72;3.30;;;;;;;;;;143735;599;47018;-88
2021/09/03 01:40:08;;;;;;;5.60;2.92;;;;;;;;;;143736;611;46019;-89
2021/09/03 01:42:35;;;;;;;16.02;4.32;;;;;;;;;;143736;566;46015;-88
2021/09/03 01:45:03;;;;;;;9.10;3.45;;;;;;;;;;143733;569;46020;-91
2021/09/03 01:47:34;;;;;;;5.95;3.20;;;;;;;;;;143732;570;46021;-89
2021/09/03 01:50:16;;;;;;;;;;;;;;;;;;;;;
2021/09/03 01:52:46;;;;;;;4.85;3.45;;;;;;;;;;143736;630;47020;-88
2021/09/03 01:55:18;;;;;;;7.18;3.92;;;;;;;;;;143734;566;46013;-89
2021/09/03 01:57:46;;;;;;;9.63;3.87;;;;;;;;;;143736;617;46020;-90
2021/09/03 02:00:23;;;;;;;8.27;3.58;;;;;;;;;;143739;636;46012;-89
2021/09/03 02:02:50;;;;;;;6.28;3.22;;;;;;;;;;143733;578;46052;-88
2021/09/03 02:05:17;;;;;;;6.80;3.05;;;;;;;;;;143730;626;47919;-88
2021/09/03 02:07:48;;;;;;;7.70;3.55;;;;;;;;;;143738;665;46020;-87
2021/09/03 02:10:14;;;;;;;7.32;3.40;;;;;;;;;;143735;634;46013;-88
2021/09/03 02:12:41;;;;;;;3.92;2.90;;;;;;;;;;143734;566;46023;-89
2021/09/03 02:15:08;;;;;;;5.75;3.78;;;;;;;;;;143737;603;46012;-89
2021/09/03 02:17:36;;;;;;;6.43;3.30;;;;;;;;;;143734;606;47020;-89
2021/09/03 02:20:05;;;;;;;5.00;3.25;;;;;;;;;;143736;609;46012;-89
2021/09/03 02:22:35;;;;;;;4.03;3.40;;;;;;;;;;143734;585;47022;-90
2021/09/03 02:25:13;;;;;;;3.10;2.80;;;;;;;;;;143736;587;46012;-90
2021/09/03 02:27:39;;;;;;;7.30;4.05;;;;;;;;;;143738;600;46021;-90
2021/09/03 02:30:09;;;;;;;5.35;3.12;;;;;;;;;;143736;638;46012;-88
2021/09/03 02:32:38;;;;;;;5.50;3.83;;;;;;;;;;143735;572;46050;-89
2021/09/03 02:35:10;;;;;;;4.53;3.67;;;;;;;;;;143735;638;46012;-88
2021/09/03 02:37:37;;;;;;;7.18;3.40;;;;;;;;;;143734;612;46020;-88
2021/09/03 02:40:07;;;;;;;5.78;3.28;;;;;;;;;;143740;614;45033;-88
2021/09/03 02:42:36;;;;;;;4.95;3.22;;;;;;;;;;143735;581;46023;-88
2021/09/03 02:45:06;;;;;;;4.68;3.53;;;;;;;;;;143734;630;46012;-88
2021/09/03 02:47:35;;;;;;;5.30;3.70;;;;;;;;;;143736;674;46021;-88
2021/09/03 02:50:06;;;;;;;3.80;3.30;;;;;;;;;;143737;596;46012;-89
2021/09/03 02:52:37;;;;;;;4.12;3.00;;;;;;;;;;143731;600;47021;-86
2021/09/03 02:55:09;;;;;;;4.87;3.22;;;;;;;;;;143736;581;46021;-89
2021/09/03 02:57:37;;;;;;;6.00;3.05;;;;;;;;;;143735;612;46021;-89
2021/09/03 03:00:25;;;;;;;4.62;3.58;;;;;;;;;;143736;615;46012;-89
2021/09/03 03:02:53;;;;;;;7.80;4.35;;;;;;;;;;143736;588;46017;-89
2021/09/03 03:05:21;;;;;;;4.10;3.10;;;;;;;;;;143734;637;46012;-88
2021/09/03 03:07:52;;;;;;;8.95;3.33;;;;;;;;;;143731;648;47014;-88
2021/09/03 03:10:20;;;;;;;6.40;3.42;;;;;;;;;;143739;608;46012;-88
2021/09/03 03:12:49;;;;;;;4.93;2.85;;;;;;;;;;143734;565;46023;-88
2021/09/03 03:15:27;;;;;;;4.10;3.05;;;;;;;;;;143733;582;46012;-89
2021/09/03 03:17:53;;;;;;;4.10;3.03;;;;;;;;;;143738;614;46014;-90
2021/09/03 03:20:23;;;;;;;6.45;3.42;;;;;;;;;;143736;599;46018;-87
2021/09/03 03:22:50;;;;;;;5.47;3.28;;;;;;;;;;143733;629;47040;-88
2021/09/03 03:25:20;;;;;;;4.20;3.03;;;;;;;;;;143736;608;47021;-88
2021/09/03 03:27:47;;;;;;;5.68;3.05;;;;;;;;;;143732;588;47020;-88
2021/09/03 03:30:14;;;;;;;7.37;3.80;;;;;;;;;;143734;580;46018;-89
2021/09/03 03:32:42;;;;;;;5.05;3.42;;;;;;;;;;143732;617;47022;-88
2021/09/03 03:35:10;;;;;;;8.95;3.58;;;;;;;;;;143732;617;46020;-90
2021/09/03 03:37:38;;;;;;;6.93;3.20;;;;;;;;;;143734;595;46020;-87
2021/09/03 03:40:06;;;;;;;8.00;3.28;;;;;;;;;;143734;585;46018;-87
2021/09/03 03:42:33;;;;;;;5.68;3.58;;;;;;;;;;143734;581;46023;-87
2021/09/03 03:45:05;;;;;;;7.72;3.62;;;;;;;;;;143731;564;46012;-89
2021/09/03 03:47:32;;;;;;;3.73;3.33;;;;;;;;;;143734;628;46021;-90
2021/09/03 03:50:00;;;;;;;4.70;3.37;;;;;;;;;;143734;567;46012;-87
2021/09/03 03:52:32;;;;;;;5.00;3.60;;;;;;;;;;143732;578;46014;-89
2021/09/03 03:55:03;;;;;;;5.12;4.45;;;;;;;;;;143732;584;46013;-90
2021/09/03 03:57:30;;;;;;;5.43;3.30;;;;;;;;;;143735;630;46020;-89
2021/09/03 03:59:59;;;;;;;6.47;3.15;;;;;;;;;;143734;653;46020;-90
2021/09/03 04:02:26;;;;;;;12.77;3.62;;;;;;;;;;143732;570;47021;-92
2021/09/03 04:04:54;;;;;;;6.47;3.37;;;;;;;;;;143732;602;46012;-90
2021/09/03 04:07:20;;;;;;;6.53;3.78;;;;;;;;;;143734;628;46020;-88
2021/09/03 04:09:47;;;;;;;6.75;3.80;;;;;;;;;;143734;619;46013;-89
2021/09/03 04:12:14;;;;;;;4.55;3.60;;;;;;;;;;143733;650;46020;-88
2021/09/03 04:14:41;;;;;;;5.40;3.17;;;;;;;;;;143733;564;46012;-88
2021/09/03 04:17:09;;;;;;;5.82;3.37;;;;;;;;;;143734;567;46021;-88
2021/09/03 04:19:37;;;;;;;8.23;3.75;;;;;;;;;;143738;591;46012;-88
2021/09/03 04:22:05;;;;;;;6.72;3.37;;;;;;;;;;143736;645;46020;-88
2021/09/03 04:24:32;;;;;;;8.43;3.60;;;;;;;;;;143733;566;46012;-90
2021/09/03 04:27:00;;;;;;;8.25;3.90;;;;;;;;;;143733;609;46020;-87
2021/09/03 04:29:28;;;;;;;7.72;3.65;;;;;;;;;;143734;559;46020;-87
2021/09/03 04:31:55;;;;;;;4.30;3.25;;;;;;;;;;143733;672;46021;-89
2021/09/03 04:34:22;;;;;;;5.07;3.45;;;;;;;;;;143733;570;46012;-88
2021/09/03 04:36:54;;;;;;;5.03;3.53;;;;;;;;;;143735;617;46020;-89
2021/09/03 04:39:21;;;;;;;9.27;3.37;;;;;;;;;;143734;631;46013;-87
2021/09/03 04:41:49;;;;;;;6.40;3.53;;;;;;;;;;143731;598;47023;-89
2021/09/03 04:44:18;;;;;;;7.20;3.60;;;;;;;;;;143732;627;46012;-90
2021/09/03 04:46:51;;;;;;;6.85;4.03;;;;;;;;;;143736;610;45021;-90
2021/09/03 04:49:25;;;;;;;7.72;3.92;;;;;;;;;;143735;579;46021;-90
2021/09/03 04:51:54;;;;;;;12.60;4.45;;;;;;;;;;143731;620;46022;-87
2021/09/03 04:54:20;;;;;;;8.02;4.43;;;;;;;;;;143732;601;46013;-88
2021/09/03 04:56:47;;;;;;;5.75;4.00;;;;;;;;;;143733;606;46021;-89
2021/09/03 04:59:15;;;;;;;9.13;4.15;;;;;;;;;;143735;631;46012;-88
2021/09/03 05:02:24;;;;;;;;;;;;;;;;;;;;;
2021/09/03 05:04:51;;;;;;;10.05;3.92;;;;;;;;;;143736;577;45047;-89
2021/09/03 05:07:19;;;;;;;10.55;3.95;;;;;;;;;;143732;618;46020;-89
2021/09/03 05:09:49;;;;;;;7.57;4.18;;;;;;;;;;143736;572;46013;-90
2021/09/03 05:12:30;;;;;;;14.87;4.00;;;;;;;;;;143732;555;47023;-91
2021/09/03 05:15:12;;;;;;;9.05;4.50;;;;;;;;;;143732;629;46012;-90
2021/09/03 05:17:50;;;;;;;14.18;5.20;;;;;;;;;;143733;596;46021;-89
2021/09/03 05:20:23;;;;;;;7.57;4.57;;;;;;;;;;143739;579;45020;-84
2021/09/03 05:23:02;;;;;;;11.27;5.00;;;;;;;;;;143737;547;45022;-93
2021/09/03 05:33:26;;;;;;;12.32;4.20;;;;;;;;;;143738;572;45021;-93
2021/09/03 05:36:27;;;;;;;;;;;;;;;;;;;;;
2021/09/03 05:39:32;;;;;;;;;;;;;;;;;;;;;
2021/09/03 05:44:46;;;;;;;5.87;3.42;;;;;;;;;;143737;675;45935;-91
2021/09/03 06:33:47;;;;;;;6.32;3.12;;;;;;;;;;143735;763;46024;-90
2021/09/03 06:36:21;;;;;;;12.55;3.12;;;;;;;;;;143734;593;46022;-87
2021/09/03 06:38:52;;;;;;;8.02;2.75;;;;;;;;;;143731;595;46013;-89
2021/09/03 06:41:22;;;;;;;4.15;2.85;;;;;;;;;;143734;604;46020;-90
2021/09/03 06:43:56;;;;;;;5.55;3.33;;;;;;;;;;143734;580;46020;-89
2021/09/03 06:46:31;;;;;;;4.87;2.62;;;;;;;;;;143732;595;47022;-88
2021/09/03 06:48:58;;;;;;;5.75;3.05;;;;;;;;;;143731;593;46012;-88
2021/09/03 06:51:31;;;;;;;16.00;3.42;;;;;;;;;;143732;734;46020;-89
2021/09/03 06:54:00;;;;;;;7.60;3.47;;;;;;;;;;143735;686;46018;-91
2021/09/03 06:56:27;;;;;;;5.90;2.83;;;;;;;;;;143733;566;46014;-90
2021/09/03 06:58:59;;;;;;;6.45;2.97;;;;;;;;;;143732;563;46012;-92
2021/09/03 07:01:31;;;;;;;12.70;3.40;;;;;;;;;;143733;602;47021;-90
2021/09/03 07:04:00;;;;;;;5.72;3.35;;;;;;;;;;143735;623;46012;-93
2021/09/03 07:06:27;;;;;;;4.55;2.90;;;;;;;;;;143732;596;46014;-89
2021/09/03 07:09:04;;;;;;;8.80;3.30;;;;;;;;;;143735;682;45863;-90
2021/09/03 07:11:41;;;;;;;6.50;3.05;;;;;;;;;;143735;575;46020;-91
2021/09/03 07:14:09;;;;;;;4.60;3.03;;;;;;;;;;143733;665;46020;-88
2021/09/03 07:16:36;;;;;;;9.40;3.28;;;;;;;;;;143731;594;46022;-90
2021/09/03 07:19:03;;;;;;;7.87;3.55;;;;;;;;;;143734;753;46012;-90
2021/09/03 07:21:31;;;;;;;8.18;3.05;;;;;;;;;;143733;600;46042;-89
2021/09/03 07:24:02;;;;;;;4.90;3.30;;;;;;;;;;143736;579;46021;-89
2021/09/03 07:26:29;;;;;;;7.03;3.20;;;;;;;;;;143731;579;47023;-87
2021/09/03 07:29:05;;;;;;;5.03;2.83;;;;;;;;;;143732;565;46012;-90
2021/09/03 07:31:35;;;;;;;11.80;4.12;;;;;;;;;;143735;584;46034;-89
2021/09/03 07:34:02;;;;;;;7.53;2.90;;;;;;;;;;143734;636;46012;-89
2021/09/03 07:36:29;;;;;;;6.55;3.42;;;;;;;;;;143737;569;45022;-93
2021/09/03 07:38:56;;;;;;;11.70;3.95;;;;;;;;;;143733;737;46013;-89
2021/09/03 07:41:23;;;;;;;4.55;3.75;;;;;;;;;;143735;949;46020;-91
2021/09/03 07:43:50;;;;;;;6.07;4.03;;;;;;;;;;143734;894;46012;-91
2021/09/03 07:46:20;;;;;;;4.30;3.30;;;;;;;;;;143733;586;46021;-90
2021/09/03 07:48:47;;;;;;;5.25;2.72;;;;;;;;;;143732;564;46918;-89
2021/09/03 07:51:16;;;;;;;6.00;3.30;;;;;;;;;;143731;973;46020;-91
2021/09/03 07:53:46;;;;;;;13.20;3.30;;;;;;;;;;143734;733;46013;-90
2021/09/03 07:56:16;;;;;;;4.70;2.92;;;;;;;;;;143731;824;47022;-91
2021/09/03 07:58:42;;;;;;;3.50;2.80;;;;;;;;;;143733;569;46030;-90
2021/09/03 08:01:10;;;;;;;7.18;3.08;;;;;;;;;;143734;902;46021;-91
2021/09/03 08:03:42;;;;;;;3.78;3.08;;;;;;;;;;143734;960;46020;-93
2021/09/03 08:06:10;;;;;;;5.53;3.45;;;;;;;;;;143736;582;46020;-91
2021/09/03 08:08:37;;;;;;;10.27;3.65;;;;;;;;;;143734;972;46021;-92
2021/09/03 08:11:03;;;;;;;7.55;3.20;;;;;;;;;;143736;699;46014;-92
2021/09/03 08:13:30;;;;;;;4.55;3.30;;;;;;;;;;143735;567;46020;-92
2021/09/03 08:16:02;;;;;;;4.40;3.70;;;;;;;;;;143735;872;46021;-92
2021/09/03 08:18:31;;;;;;;5.67;3.60;;;;;;;;;;143737;725;45020;-92
2021/09/03 08:21:03;;;;;;;8.00;2.95;;;;;;;;;;143735;980;46020;-89
2021/09/03 08:23:35;;;;;;;5.95;3.55;;;;;;;;;;143737;576;46013;-89
2021/09/03 08:26:19;;;;;;;;;;;;;;;;;;;;;
2021/09/03 08:28:53;;;;;;;5.95;3.37;;;;;;;;;;143736;938;46020;-91
2021/09/03 08:31:23;;;;;;;6.45;3.20;;;;;;;;;;143736;750;46021;-91
2021/09/03 08:34:12;;;;;;;6.57;2.90;;;;;;;;;;143735;607;47020;-92
2021/09/03 08:36:41;;;;;;;4.50;3.33;;;;;;;;;;143733;566;46022;-91
2021/09/03 08:39:13;;;;;;;7.03;3.30;;;;;;;;;;143734;627;46020;-91
2021/09/03 08:41:42;;;;;;;5.85;3.53;;;;;;;;;;143735;600;46020;-89
2021/09/03 08:44:16;;;;;;;4.25;3.33;;;;;;;;;;143737;579;45030;-91
2021/09/03 08:46:48;;;;;;;10.65;3.90;;;;;;;;;;143735;565;46023;-90
2021/09/03 08:49:14;;;;;;;;;;;;;;;;;;143742;668;45920;-66
2021/09/03 08:51:41;;;;;;;6.07;3.50;;;;;;;;;;143739;570;46020;-66
2021/09/03 08:54:07;;;;;;;7.65;3.45;;;;;;;;;;143734;611;46010;-66
2021/09/03 08:56:34;;;;;;;5.82;3.15;;;;;;;;;;143731;638;46022;-66
2021/09/03 08:59:00;;;;;;;4.10;3.53;;;;;;;;;;143730;608;46920;-68
2021/09/03 09:01:27;;;;;;;6.37;3.20;;;;;;;;;;143733;579;46021;-66
2021/09/03 09:03:53;;;;;;;6.07;3.55;;;;;;;;;;143732;598;46012;-67
2021/09/03 09:06:25;;;;;;;8.13;3.53;;;;;;;;;;143733;569;46022;-66
2021/09/03 09:09:07;;;;;;;9.00;3.53;;;;;;;;;;143732;564;46921;-66
2021/09/03 09:11:36;;;;;;;6.37;3.40;;;;;;;;;;143733;608;46020;-66
2021/09/03 09:14:12;;;;;;;6.40;3.47;;;;;;;;;;143733;612;46012;-67
2021/09/03 09:16:39;;;;;;;5.20;3.22;;;;;;;;;;143732;599;46051;-66
2021/09/03 09:19:08;;;;;;;6.25;3.92;;;;;;;;;;143732;576;46010;-66
2021/09/03 09:21:39;;;;;;;5.35;3.60;;;;;;;;;;143734;734;46020;-68
2021/09/03 09:24:13;;;;;;;6.80;3.78;;;;;;;;;;143734;579;46010;-67
2021/09/03 09:26:54;;;;;;;7.90;3.20;;;;;;;;;;143733;602;46022;-67
2021/09/03 09:29:27;;;;;;;6.40;3.20;;;;;;;;;;143732;648;46010;-65
2021/09/03 09:32:05;;;;;;;8.80;3.40;;;;;;;;;;143734;593;46021;-67
2021/09/03 09:34:34;;;;;;;9.30;3.53;;;;;;;;;;143734;633;46012;-67
2021/09/03 09:37:02;;;;;;;9.75;3.55;;;;;;;;;;143731;603;47021;-67
2021/09/03 09:39:46;;;;;;;7.68;3.70;;;;;;;;;;143735;592;46020;-66
2021/09/03 09:42:30;;;;;;;5.82;3.30;;;;;;;;;;143732;597;46020;-68
2021/09/03 09:45:14;;;;;;;5.78;3.33;;;;;;;;;;143737;581;46019;-66
2021/09/03 09:47:42;;;;;;;7.62;3.20;;;;;;;;;;143732;570;46023;-65
2021/09/03 09:50:30;;;;;;;3.25;2.62;;;;;;;;;;143733;573;46920;-69
2021/09/03 09:53:10;;;;;;;5.18;3.42;;;;;;;;;;143735;586;46021;-67
2021/09/03 09:55:40;;;;;;;6.93;3.45;;;;;;;;;;143734;611;46012;-69
2021/09/03 09:58:07;;;;;;;10.07;3.67;;;;;;;;;;143733;569;46022;-65
2021/09/03 10:00:35;;;;;;;4.03;2.92;;;;;;;;;;143729;632;47012;-68
2021/09/03 10:03:03;;;;;;;8.05;3.53;;;;;;;;;;143735;591;46020;-68
2021/09/03 10:05:31;;;;;;;3.97;3.10;;;;;;;;;;143734;571;46012;-67
2021/09/03 10:07:59;;;;;;;5.03;3.40;;;;;;;;;;143732;621;47023;-67
2021/09/03 10:10:26;;;;;;;9.77;3.30;;;;;;;;;;143733;569;46010;-68
2021/09/03 10:12:53;;;;;;;7.22;3.92;;;;;;;;;;143732;640;46020;-67
2021/09/03 10:15:20;;;;;;;6.85;3.15;;;;;;;;;;143735;574;46010;-67
2021/09/03 10:17:47;;;;;;;9.45;3.40;;;;;;;;;;143732;570;46023;-67
2021/09/03 10:20:14;;;;;;;4.07;3.42;;;;;;;;;;143728;601;46920;-68
2021/09/03 10:22:46;;;;;;;4.18;3.20;;;;;;;;;;143733;565;46021;-69
2021/09/03 10:25:12;;;;;;;4.07;3.30;;;;;;;;;;143732;752;46012;-67
2021/09/03 10:27:40;;;;;;;5.87;3.12;;;;;;;;;;143730;608;47012;-69
2021/09/03 10:30:15;;;;;;;5.03;2.90;;;;;;;;;;143732;574;46012;-67
2021/09/03 10:32:42;;;;;;;13.70;3.62;;;;;;;;;;143732;569;46020;-67
2021/09/03 10:35:18;;;;;;;10.95;3.12;;;;;;;;;;143735;599;46010;-67
2021/09/03 10:37:49;;;;;;;5.30;3.37;;;;;;;;;;143731;585;46022;-67
2021/09/03 10:40:21;;;;;;;7.15;2.97;;;;;;;;;;143730;600;46012;-66
2021/09/03 10:42:53;;;;;;;;;;;;;;;;;;143739;975;46020;-67
2021/09/03 10:45:40;;;;;;;3.40;2.65;;;;;;;;;;143739;565;46021;-66
2021/09/03 10:48:19;;;;;;;8.18;3.40;;;;;;;;;;143735;575;46022;-69
2021/09/03 10:50:56;;;;;;;7.72;3.08;;;;;;;;;;143733;683;46012;-67
2021/09/03 10:53:31;;;;;;;10.10;3.75;;;;;;;;;;143735;713;46021;-65
2021/09/03 10:56:22;;;;;;;5.30;2.90;;;;;;;;;;143737;587;46012;-67
2021/09/03 10:59:03;;;;;;;6.50;3.40;;;;;;;;;;143732;577;47024;-65
2021/09/03 11:01:35;;;;;;;5.53;3.47;;;;;;;;;;143731;678;46013;-67
2021/09/03 11:04:07;;;;;;;17.05;3.67;;;;;;;;;;143735;778;46020;-67
2021/09/03 11:06:37;;;;;;;7.12;3.00;;;;;;;;;;143734;570;46013;-67
2021/09/03 11:09:24;;;;;;;9.73;3.17;;;;;;;;;;143734;579;46021;-70
2021/09/03 11:11:56;;;;;;;5.07;3.00;;;;;;;;;;143733;590;46012;-67
2021/09/03 11:14:28;;;;;;;4.75;3.17;;;;;;;;;;143733;819;46015;-68
2021/09/03 11:17:03;;;;;;;9.82;3.42;;;;;;;;;;143735;714;46012;-67
2021/09/03 11:19:49;;;;;;;11.75;4.12;;;;;;;;;;143733;581;46022;-67
2021/09/03 11:22:20;;;;;;;4.28;3.17;;;;;;;;;;143736;567;46021;-68
2021/09/03 11:24:56;;;;;;;6.47;3.00;;;;;;;;;;143734;569;46020;-68
2021/09/03 11:27:29;;;;;;;7.72;3.20;;;;;;;;;;143738;574;46012;-67
2021/09/03 11:29:58;;;;;;;7.05;3.28;;;;;;;;;;143735;600;46022;-69
2021/09/03 11:32:31;;;;;;;8.30;3.08;;;;;;;;;;143736;600;46020;-69
2021/09/03 11:35:00;;;;;;;4.32;3.40;;;;;;;;;;143736;624;46020;-67
2021/09/03 11:37:29;;;;;;;6.10;3.55;;;;;;;;;;143735;660;46013;-68
2021/09/03 11:40:34;;;;;;;4.65;2.78;;;;;;;;;;143734;933;47023;-66
2021/09/03 11:43:03;;;;;;;7.22;2.70;;;;;;;;;;143732;639;46012;-67
2021/09/03 11:45:35;;;;;;;4.40;2.95;;;;;;;;;;143736;621;46021;-66
2021/09/03 11:48:09;;;;;;;4.85;2.80;;;;;;;;;;143736;630;46020;-68
2021/09/03 11:50:42;;;;;;;5.82;3.10;;;;;;;;;;143733;569;47022;-69
2021/09/03 11:53:28;;;;;;;9.88;3.70;;;;;;;;;;143734;633;46012;-67
2021/09/03 11:55:56;;;;;;;15.85;3.12;;;;;;;;;;143734;944;46020;-66
2021/09/03 11:58:23;;;;;;;13.52;3.78;;;;;;;;;;143736;585;46013;-66
2021/09/03 12:00:52;;;;;;;6.45;3.45;;;;;;;;;;143734;678;46023;-66
2021/09/03 12:03:33;;;;;;;4.07;2.80;;;;;;;;;;143732;566;46012;-68
2021/09/03 12:06:01;;;;;;;8.48;2.72;;;;;;;;;;143733;588;46020;-67
2021/09/03 12:08:35;;;;;;;6.00;3.17;;;;;;;;;;143736;576;46013;-67
2021/09/03 12:11:07;;;;;;;9.57;3.50;;;;;;;;;;143735;604;46022;-70
2021/09/03 12:13:44;;;;;;;8.55;2.72;;;;;;;;;;143731;862;46012;-68
2021/09/03 12:16:21;;;;;;;8.70;3.87;;;;;;;;;;143735;569;46021;-68
2021/09/03 12:18:54;;;;;;;13.77;3.50;;;;;;;;;;143735;592;46012;-68
2021/09/03 12:21:32;;;;;;;6.20;3.12;;;;;;;;;;143735;741;47022;-68
2021/09/03 12:24:04;;;;;;;8.00;3.30;;;;;;;;;;143733;799;46012;-67
2021/09/03 12:26:51;;;;;;;9.32;4.10;;;;;;;;;;143735;571;46020;-67
2021/09/03 12:29:27;;;;;;;9.13;3.10;;;;;;;;;;143736;753;46013;-67
2021/09/03 12:31:56;;;;;;;11.48;3.58;;;;;;;;;;143735;681;46048;-68
2021/09/03 12:34:27;;;;;;;10.73;3.28;;;;;;;;;;143734;733;46012;-69
2021/09/03 12:37:19;;;;;;;5.35;2.80;;;;;;;;;;143736;703;46021;-67
2021/09/03 12:39:46;;;;;;;5.23;2.97;;;;;;;;;;143736;596;46012;-66
2021/09/03 12:42:17;;;;;;;9.88;3.47;;;;;;;;;;143734;593;47020;-68
2021/09/03 12:44:44;;;;;;;8.68;3.20;;;;;;;;;;143733;572;46013;-68
2021/09/03 12:47:10;;;;;;;6.20;3.33;;;;;;;;;;143735;910;46020;-67
2021/09/03 12:49:39;;;;;;;7.75;2.92;;;;;;;;;;143735;636;46020;-66
2021/09/03 12:52:19;;;;;;;4.12;3.20;;;;;;;;;;143736;596;46022;-68
2021/09/03 12:54:45;;;;;;;5.68;2.87;;;;;;;;;;143735;710;46012;-68
2021/09/03 12:57:12;;;;;;;7.85;3.72;;;;;;;;;;143737;583;46020;-67
2021/09/03 12:59:39;;;;;;;7.30;3.53;;;;;;;;;;143737;597;46018;-67
2021/09/03 13:02:07;;;;;;;10.20;3.25;;;;;;;;;;143735;605;46022;-69
2021/09/03 13:04:34;;;;;;;6.07;3.05;;;;;;;;;;143734;595;46012;-72
2021/09/03 13:07:00;;;;;;;8.05;2.90;;;;;;;;;;143736;585;46021;-67
2021/09/03 13:09:28;;;;;;;8.57;3.25;;;;;;;;;;143736;708;46012;-67
2021/09/03 13:12:10;;;;;;;5.72;2.65;;;;;;;;;;143735;614;46022;-68
2021/09/03 13:14:36;;;;;;;8.48;3.12;;;;;;;;;;143734;564;46021;-68
2021/09/03 13:17:03;;;;;;;7.70;3.62;;;;;;;;;;143735;569;46020;-67
2021/09/03 13:19:30;;;;;;;11.48;3.22;;;;;;;;;;143735;659;46020;-68
2021/09/03 13:21:56;;;;;;;5.50;2.70;;;;;;;;;;143733;881;47022;-68
2021/09/03 13:24:38;;;;;;;9.27;2.92;;;;;;;;;;143733;734;47012;-67
2021/09/03 13:27:05;;;;;;;5.47;2.92;;;;;;;;;;143735;658;46020;-67
2021/09/03 13:29:31;;;;;;;6.20;2.97;;;;;;;;;;143735;569;46012;-66
2021/09/03 13:31:58;;;;;;;10.52;3.20;;;;;;;;;;143733;815;47022;-68
2021/09/03 13:34:24;;;;;;;6.78;3.12;;;;;;;;;;143735;572;46012;-66
2021/09/03 13:36:51;;;;;;;4.78;2.70;;;;;;;;;;143734;585;46021;-68
2021/09/03 13:39:17;;;;;;;4.00;2.95;;;;;;;;;;143736;651;46012;-66
2021/09/03 13:41:45;;;;;;;6.18;3.03;;;;;;;;;;143734;621;46022;-68
2021/09/03 13:44:11;;;;;;;6.45;3.20;;;;;;;;;;143732;980;46013;-66
2021/09/03 13:46:37;;;;;;;6.00;3.15;;;;;;;;;;143735;640;46020;-67
2021/09/03 13:49:04;;;;;;;4.75;3.03;;;;;;;;;;143737;578;46012;-66
2021/09/03 13:51:31;;;;;;;3.65;3.03;;;;;;;;;;143734;583;47021;-67
2021/09/03 13:53:57;;;;;;;4.40;2.65;;;;;;;;;;143732;591;46919;-67
2021/09/03 13:56:24;;;;;;;11.07;3.12;;;;;;;;;;143734;945;46020;-66
2021/09/03 13:58:50;;;;;;;6.43;3.30;;;;;;;;;;143737;941;46013;-66
2021/09/03 14:01:20;;;;;;;12.27;3.45;;;;;;;;;;143735;579;46022;-68
2021/09/03 14:03:46;;;;;;;6.80;3.20;;;;;;;;;;143732;569;46012;-67
2021/09/03 14:06:13;;;;;;;6.45;3.28;;;;;;;;;;143736;635;46021;-67
2021/09/03 14:08:42;;;;;;;6.43;3.12;;;;;;;;;;143737;588;46012;-67
2021/09/03 14:11:11;;;;;;;4.37;2.87;;;;;;;;;;143730;597;47020;-66
2021/09/03 14:13:38;;;;;;;9.55;3.28;;;;;;;;;;143737;739;46021;-68
2021/09/03 14:16:04;;;;;;;5.62;2.70;;;;;;;;;;143735;637;46020;-67
2021/09/03 14:18:31;;;;;;;9.07;3.40;;;;;;;;;;143734;600;46012;-67
2021/09/03 14:20:57;;;;;;;4.85;2.83;;;;;;;;;;143734;565;46050;-66
2021/09/03 14:23:24;;;;;;;4.80;2.95;;;;;;;;;;143733;577;46012;-67
2021/09/03 14:25:50;;;;;;;5.82;2.53;;;;;;;;;;143736;831;46020;-67
2021/09/03 14:28:17;;;;;;;10.18;2.75;;;;;;;;;;143735;588;46013;-69
2021/09/03 14:30:44;;;;;;;5.75;2.33;;;;;;;;;;143733;608;47023;-67
2021/09/03 14:33:10;;;;;;;5.55;3.20;;;;;;;;;;143733;597;46012;-67
2021/09/03 14:35:38;;;;;;;3.90;2.33;;;;;;;;;;143734;582;47021;-68
2021/09/03 14:38:04;;;;;;;7.05;2.90;;;;;;;;;;143736;739;46012;-67
2021/09/03 14:40:32;;;;;;;6.72;2.80;;;;;;;;;;143733;642;47020;-67
2021/09/03 14:42:59;;;;;;;4.40;2.40;;;;;;;;;;143734;661;46918;-67
2021/09/03 14:45:25;;;;;;;9.60;2.97;;;;;;;;;;143735;580;46020;-68
2021/09/03 14:47:52;;;;;;;10.95;2.55;;;;;;;;;;143736;885;46018;-67
2021/09/03 14:50:18;;;;;;;6.22;2.83;;;;;;;;;;143733;655;46034;-66
2021/09/03 14:52:45;;;;;;;6.57;2.47;;;;;;;;;;143735;896;46012;-68
2021/09/03 14:55:12;;;;;;;6.80;2.80;;;;;;;;;;143734;580;46020;-67
2021/09/03 14:57:38;;;;;;;12.93;2.78;;;;;;;;;;143736;980;46013;-67
2021/09/03 15:00:07;;;;;;;6.18;2.53;;;;;;;;;;143734;574;46014;-66
2021/09/03 15:02:33;;;;;;;5.25;2.35;;;;;;;;;;143737;630;46020;-69
2021/09/03 15:05:03;;;;;;;5.93;2.42;;;;;;;;;;143735;972;46020;-67
2021/09/03 15:07:30;;;;;;;6.72;2.42;;;;;;;;;;143736;623;46012;-67
2021/09/03 15:09:56;;;;;;;7.87;3.35;;;;;;;;;;143735;643;46914;-67
2021/09/03 15:12:22;;;;;;;4.60;2.90;;;;;;;;;;143733;980;46021;-66
2021/09/03 15:14:49;;;;;;;2.78;1.83;;;;;;;;;;143734;633;46021;-68
2021/09/03 15:17:16;;;;;;;8.02;3.15;;;;;;;;;;143735;608;46012;-67
2021/09/03 15:19:42;;;;;;;4.25;2.50;;;;;;;;;;143732;569;47022;-66
2021/09/03 15:22:10;;;;;;;4.87;2.85;;;;;;;;;;143732;956;47012;-69
2021/09/03 15:24:39;;;;;;;5.80;2.75;;;;;;;;;;143736;564;46020;-68
2021/09/03 15:27:09;;;;;;;7.40;2.70;;;;;;;;;;143736;566;46013;-67
2021/09/03 15:29:35;;;;;;;8.50;3.05;;;;;;;;;;143735;977;46023;-68
2021/09/03 15:32:02;;;;;;;4.57;2.80;;;;;;;;;;143734;582;46012;-67
2021/09/03 15:34:29;;;;;;;5.07;2.92;;;;;;;;;;143736;576;46015;-67
2021/09/03 15:36:59;;;;;;;8.50;3.10;;;;;;;;;;143739;795;46020;-68
2021/09/03 15:39:26;;;;;;;5.18;2.75;;;;;;;;;;143733;569;46022;-67
2021/09/03 15:41:52;;;;;;;10.18;2.30;;;;;;;;;;143732;583;46013;-66
2021/09/03 15:44:19;;;;;;;3.60;2.17;;;;;;;;;;143738;588;46021;-68
2021/09/03 15:46:45;;;;;;;7.50;2.80;;;;;;;;;;143735;589;46012;-67
2021/09/03 15:49:12;;;;;;;7.97;2.85;;;;;;;;;;143733;590;46022;-68
2021/09/03 15:51:39;;;;;;;3.78;2.47;;;;;;;;;;143731;979;46919;-69
2021/09/03 15:54:06;;;;;;;5.10;2.40;;;;;;;;;;143736;601;46020;-68
2021/09/03 15:56:32;;;;;;;9.20;2.75;;;;;;;;;;143736;630;46013;-68
2021/09/03 15:58:58;;;;;;;4.55;2.28;;;;;;;;;;143733;587;47023;-67
2021/09/03 16:01:25;;;;;;;6.80;2.87;;;;;;;;;;143731;601;46012;-66
2021/09/03 16:03:51;;;;;;;5.25;2.33;;;;;;;;;;143733;572;46021;-68